sensor_id;sensor_type;location;lat;lon;timestamp;pressure;altitude;pressure_sealevel;temperature;humidity
59650;BME280;46162;57.568;25.814;2024-03-08T00:01:45;101745.72;;;-3.88;100.00
59650;BME280;46162;57.568;25.814;2024-03-08T00:04:14;101746.59;;;-3.87;100.00
59650;BME280;46162;57.568;25.814;2024-03-08T00:06:43;101740.38;;;-3.85;100.00
59650;BME280;46162;57.568;25.814;2024-03-08T00:09:13;101734.22;;;-3.85;100.00
59650;BME280;46162;57.568;25.814;2024-03-08T00:11:42;101738.75;;;-3.91;100.00
59650;BME280;46162;57.568;25.814;2024-03-08T00:14:12;101737.91;;;-3.93;100.00
59650;BME280;46162;57.568;25.814;2024-03-08T00:16:42;101737.81;;;-3.90;100.00
59650;BME280;46162;57.568;25.814;2024-03-08T00:19:11;101739.53;;;-3.87;100.00
59650;BME280;46162;57.568;25.814;2024-03-08T00:21:39;101737.75;;;-3.86;100.00
59650;BME280;46162;57.568;25.814;2024-03-08T00:24:08;101745.47;;;-3.77;100.00
59650;BME280;46162;57.568;25.814;2024-03-08T00:26:37;101748.97;;;-3.77;100.00
59650;BME280;46162;57.568;25.814;2024-03-08T00:29:06;101737.56;;;-3.77;100.00
59650;BME280;46162;57.568;25.814;2024-03-08T00:31:35;101738.41;;;-3.77;100.00
59650;BME280;46162;57.568;25.814;2024-03-08T00:34:05;101735.78;;;-3.77;100.00
59650;BME280;46162;57.568;25.814;2024-03-08T00:36:33;101734.91;;;-3.76;100.00
59650;BME280;46162;57.568;25.814;2024-03-08T00:39:02;101741.91;;;-3.76;100.00
59650;BME280;46162;57.568;25.814;2024-03-08T00:41:33;101735.22;;;-3.91;100.00
59650;BME280;46162;57.568;25.814;2024-03-08T00:44:02;101748.47;;;-3.94;100.00
59650;BME280;46162;57.568;25.814;2024-03-08T00:46:31;101751.13;;;-3.94;100.00
59650;BME280;46162;57.568;25.814;2024-03-08T00:49:01;101746.66;;;-3.91;100.00
59650;BME280;46162;57.568;25.814;2024-03-08T00:51:31;101738.69;;;-3.89;100.00
59650;BME280;46162;57.568;25.814;2024-03-08T00:54:00;101738.78;;;-3.92;100.00
59650;BME280;46162;57.568;25.814;2024-03-08T00:56:28;101738.69;;;-3.89;100.00
59650;BME280;46162;57.568;25.814;2024-03-08T00:58:57;101733.34;;;-3.86;100.00
59650;BME280;46162;57.568;25.814;2024-03-08T01:01:26;101726.34;;;-3.87;100.00
59650;BME280;46162;57.568;25.814;2024-03-08T01:03:55;101729.91;;;-3.88;100.00
59650;BME280;46162;57.568;25.814;2024-03-08T01:06:24;101730.75;;;-3.87;100.00
59650;BME280;46162;57.568;25.814;2024-03-08T01:08:54;101731.63;;;-3.87;100.00
59650;BME280;46162;57.568;25.814;2024-03-08T01:11:23;101720.13;;;-3.84;100.00
59650;BME280;46162;57.568;25.814;2024-03-08T01:13:52;101728.19;;;-3.91;100.00
59650;BME280;46162;57.568;25.814;2024-03-08T01:16:20;101728.28;;;-3.95;100.00
59650;BME280;46162;57.568;25.814;2024-03-08T01:18:49;101717.78;;;-3.98;100.00
59650;BME280;46162;57.568;25.814;2024-03-08T01:21:18;101728.47;;;-4.04;100.00
59650;BME280;46162;57.568;25.814;2024-03-08T01:23:47;101720.59;;;-4.06;100.00
59650;BME280;46162;57.568;25.814;2024-03-08T01:26:17;101724.84;;;-3.99;100.00
59650;BME280;46162;57.568;25.814;2024-03-08T01:28:46;101726.53;;;-3.96;100.00
59650;BME280;46162;57.568;25.814;2024-03-08T01:31:14;101731.63;;;-3.87;100.00
59650;BME280;46162;57.568;25.814;2024-03-08T01:33:43;101737.16;;;-3.99;100.00
59650;BME280;46162;57.568;25.814;2024-03-08T01:36:12;101725.56;;;-3.92;100.00
59650;BME280;46162;57.568;25.814;2024-03-08T01:38:42;101728.22;;;-3.92;100.00
59650;BME280;46162;57.568;25.814;2024-03-08T01:41:11;101735.44;;;-4.00;100.00
59650;BME280;46162;57.568;25.814;2024-03-08T01:43:43;101730.94;;;-3.97;100.00
59650;BME280;46162;57.568;25.814;2024-03-08T01:46:15;101741.44;;;-3.94;100.00
59650;BME280;46162;57.568;25.814;2024-03-08T01:48:45;101738.88;;;-3.98;100.00
59650;BME280;46162;57.568;25.814;2024-03-08T01:51:14;101737.16;;;-3.99;100.00
59650;BME280;46162;57.568;25.814;2024-03-08T01:53:46;101733.69;;;-4.01;100.00
59650;BME280;46162;57.568;25.814;2024-03-08T01:56:16;101732.13;;;-4.10;100.00
59650;BME280;46162;57.568;25.814;2024-03-08T01:58:47;101726.88;;;-4.12;100.00
59650;BME280;46162;57.568;25.814;2024-03-08T02:01:16;101722.69;;;-4.20;100.00
59650;BME280;46162;57.568;25.814;2024-03-08T02:03:46;101719.97;;;-4.17;100.00
59650;BME280;46162;57.568;25.814;2024-03-08T02:06:15;101717.28;;;-4.16;100.00
59650;BME280;46162;57.568;25.814;2024-03-08T02:08:45;101718.13;;;-4.14;100.00
59650;BME280;46162;57.568;25.814;2024-03-08T02:11:40;101719.81;;;-4.09;100.00
59650;BME280;46162;57.568;25.814;2024-03-08T02:14:11;101721.53;;;-4.08;100.00
59650;BME280;46162;57.568;25.814;2024-03-08T02:16:41;101707.56;;;-4.14;100.00
59650;BME280;46162;57.568;25.814;2024-03-08T02:19:09;101712.16;;;-4.22;100.00
59650;BME280;46162;57.568;25.814;2024-03-08T02:21:39;101705.97;;;-4.21;100.00
59650;BME280;46162;57.568;25.814;2024-03-08T02:24:08;101706.81;;;-4.19;100.00
59650;BME280;46162;57.568;25.814;2024-03-08T02:26:37;101716.59;;;-4.24;100.00
59650;BME280;46162;57.568;25.814;2024-03-08T02:29:05;101716.50;;;-4.21;100.00
59650;BME280;46162;57.568;25.814;2024-03-08T02:31:34;101717.44;;;-4.22;100.00
59650;BME280;46162;57.568;25.814;2024-03-08T02:34:03;101705.03;;;-4.18;100.00
59650;BME280;46162;57.568;25.814;2024-03-08T02:36:32;101711.19;;;-4.18;100.00
59650;BME280;46162;57.568;25.814;2024-03-08T02:39:03;101713.00;;;-4.20;100.00
59650;BME280;46162;57.568;25.814;2024-03-08T02:41:32;101712.13;;;-4.20;100.00
59650;BME280;46162;57.568;25.814;2024-03-08T02:44:01;101708.75;;;-4.28;100.00
59650;BME280;46162;57.568;25.814;2024-03-08T02:46:31;101709.69;;;-4.31;100.00
59650;BME280;46162;57.568;25.814;2024-03-08T02:48:59;101714.03;;;-4.27;100.00
59650;BME280;46162;57.568;25.814;2024-03-08T02:51:29;101716.50;;;-4.21;100.00
59650;BME280;46162;57.568;25.814;2024-03-08T02:53:58;101717.44;;;-4.22;100.00
59650;BME280;46162;57.568;25.814;2024-03-08T02:56:28;101716.59;;;-4.25;100.00
59650;BME280;46162;57.568;25.814;2024-03-08T02:58:57;101721.94;;;-4.28;100.00
59650;BME280;46162;57.568;25.814;2024-03-08T03:01:25;101720.25;;;-4.31;100.00
59650;BME280;46162;57.568;25.814;2024-03-08T03:03:54;101721.06;;;-4.27;100.00
59650;BME280;46162;57.568;25.814;2024-03-08T03:06:23;101722.88;;;-4.31;100.00
59650;BME280;46162;57.568;25.814;2024-03-08T03:08:51;101732.53;;;-4.30;100.00
59650;BME280;46162;57.568;25.814;2024-03-08T03:11:20;101728.09;;;-4.28;100.00
59650;BME280;46162;57.568;25.814;2024-03-08T03:13:50;101732.50;;;-4.28;100.00
59650;BME280;46162;57.568;25.814;2024-03-08T03:16:19;101734.41;;;-4.35;100.00
59650;BME280;46162;57.568;25.814;2024-03-08T03:18:48;101731.72;;;-4.34;100.00
59650;BME280;46162;57.568;25.814;2024-03-08T03:21:17;101728.28;;;-4.37;100.00
59650;BME280;46162;57.568;25.814;2024-03-08T03:23:45;101721.19;;;-4.34;100.00
59650;BME280;46162;57.568;25.814;2024-03-08T03:26:15;101721.22;;;-4.35;100.00
59650;BME280;46162;57.568;25.814;2024-03-08T03:28:44;101721.22;;;-4.35;100.00
59650;BME280;46162;57.568;25.814;2024-03-08T03:31:14;101718.53;;;-4.32;100.00
59650;BME280;46162;57.568;25.814;2024-03-08T03:33:44;101716.91;;;-4.39;100.00
59650;BME280;46162;57.568;25.814;2024-03-08T03:36:14;101713.44;;;-4.41;100.00
59650;BME280;46162;57.568;25.814;2024-03-08T03:38:43;101711.66;;;-4.41;100.00
59650;BME280;46162;57.568;25.814;2024-03-08T03:41:12;101723.03;;;-4.37;100.00
59650;BME280;46162;57.568;25.814;2024-03-08T03:43:42;101722.09;;;-4.36;100.00
59650;BME280;46162;57.568;25.814;2024-03-08T03:46:11;101730.19;;;-4.44;100.00
59650;BME280;46162;57.568;25.814;2024-03-08T03:48:41;101709.94;;;-4.43;100.00
59650;BME280;46162;57.568;25.814;2024-03-08T03:51:10;101724.84;;;-4.41;100.00
59650;BME280;46162;57.568;25.814;2024-03-08T03:53:39;101724.88;;;-4.42;100.00
59650;BME280;46162;57.568;25.814;2024-03-08T03:56:07;101723.13;;;-4.43;100.00
59650;BME280;46162;57.568;25.814;2024-03-08T03:58:36;101722.34;;;-4.48;100.00
59650;BME280;46162;57.568;25.814;2024-03-08T04:01:05;101723.13;;;-4.42;100.00
59650;BME280;46162;57.568;25.814;2024-03-08T04:03:38;101724.03;;;-4.44;100.00
59650;BME280;46162;57.568;25.814;2024-03-08T04:06:14;101713.50;;;-4.44;100.00
59650;BME280;46162;57.568;25.814;2024-03-08T04:08:51;101713.56;;;-4.47;100.00
59650;BME280;46162;57.568;25.814;2024-03-08T04:11:20;101710.94;;;-4.49;100.00
59650;BME280;46162;57.568;25.814;2024-03-08T04:13:49;101715.31;;;-4.48;100.00
59650;BME280;46162;57.568;25.814;2024-03-08T04:16:24;101712.75;;;-4.53;100.00
59650;BME280;46162;57.568;25.814;2024-03-08T04:18:53;101712.75;;;-4.51;100.00
59650;BME280;46162;57.568;25.814;2024-03-08T04:21:26;101712.00;;;-4.58;100.00
59650;BME280;46162;57.568;25.814;2024-03-08T04:24:01;101711.94;;;-4.55;100.00
59650;BME280;46162;57.568;25.814;2024-03-08T04:26:33;101710.25;;;-4.59;100.00
59650;BME280;46162;57.568;25.814;2024-03-08T04:29:10;101703.06;;;-4.50;100.00
59650;BME280;46162;57.568;25.814;2024-03-08T04:31:59;101712.75;;;-4.53;100.00
59650;BME280;46162;57.568;25.814;2024-03-08T04:34:37;101711.94;;;-4.55;100.00
59650;BME280;46162;57.568;25.814;2024-03-08T04:37:16;101706.69;;;-4.56;100.00
59650;BME280;46162;57.568;25.814;2024-03-08T04:39:51;101706.53;;;-4.48;100.00
59650;BME280;46162;57.568;25.814;2024-03-08T04:42:25;101706.78;;;-4.61;100.00
59650;BME280;46162;57.568;25.814;2024-03-08T04:44:58;101696.31;;;-4.64;100.00
59650;BME280;46162;57.568;25.814;2024-03-08T04:47:30;101693.59;;;-4.59;100.00
59650;BME280;46162;57.568;25.814;2024-03-08T04:50:07;101690.97;;;-4.59;100.00
59650;BME280;46162;57.568;25.814;2024-03-08T04:52:47;101693.66;;;-4.62;100.00
59650;BME280;46162;57.568;25.814;2024-03-08T04:55:22;101701.41;;;-4.55;100.00
59650;BME280;46162;57.568;25.814;2024-03-08T04:57:58;101694.44;;;-4.59;100.00
59650;BME280;46162;57.568;25.814;2024-03-08T05:00:30;101702.44;;;-4.63;100.00
59650;BME280;46162;57.568;25.814;2024-03-08T05:03:02;101690.97;;;-4.59;100.00
59650;BME280;46162;57.568;25.814;2024-03-08T05:05:39;101699.72;;;-4.59;100.00
59650;BME280;46162;57.568;25.814;2024-03-08T05:08:15;101692.69;;;-4.58;100.00
59650;BME280;46162;57.568;25.814;2024-03-08T05:10:48;101691.91;;;-4.63;100.00
59650;BME280;46162;57.568;25.814;2024-03-08T05:13:18;101694.44;;;-4.59;100.00
59650;BME280;46162;57.568;25.814;2024-03-08T05:15:53;101698.03;;;-4.63;100.00
59650;BME280;46162;57.568;25.814;2024-03-08T05:18:26;101705.13;;;-4.65;100.00
59650;BME280;46162;57.568;25.814;2024-03-08T05:20:58;101709.56;;;-4.67;100.00
59650;BME280;46162;57.568;25.814;2024-03-08T05:23:34;101695.47;;;-4.66;100.00
59650;BME280;46162;57.568;25.814;2024-03-08T05:26:03;101696.28;;;-4.62;100.00
59650;BME280;46162;57.568;25.814;2024-03-08T05:28:41;101703.34;;;-4.64;100.00
59650;BME280;46162;57.568;25.814;2024-03-08T05:31:19;101707.03;;;-4.73;100.00
59650;BME280;46162;57.568;25.814;2024-03-08T05:33:51;101700.03;;;-4.74;100.00
59650;BME280;46162;57.568;25.814;2024-03-08T05:36:28;101703.50;;;-4.72;100.00
59650;BME280;46162;57.568;25.814;2024-03-08T05:39:07;101700.75;;;-4.66;100.00
59650;BME280;46162;57.568;25.814;2024-03-08T05:41:42;101699.03;;;-4.68;100.00
59650;BME280;46162;57.568;25.814;2024-03-08T05:44:14;101701.66;;;-4.67;100.00
59650;BME280;46162;57.568;25.814;2024-03-08T05:46:46;101706.00;;;-4.66;100.00
59650;BME280;46162;57.568;25.814;2024-03-08T05:49:21;101714.53;;;-4.51;100.00
59650;BME280;46162;57.568;25.814;2024-03-08T05:51:56;101711.03;;;-4.54;100.00
59650;BME280;46162;57.568;25.814;2024-03-08T05:54:29;101719.88;;;-4.56;100.00
59650;BME280;46162;57.568;25.814;2024-03-08T05:57:05;101717.31;;;-4.61;100.00
59650;BME280;46162;57.568;25.814;2024-03-08T05:59:40;101710.34;;;-4.62;100.00
59650;BME280;46162;57.568;25.814;2024-03-08T06:02:12;101720.97;;;-4.68;100.00
59650;BME280;46162;57.568;25.814;2024-03-08T06:04:43;101721.88;;;-4.69;100.00
59650;BME280;46162;57.568;25.814;2024-03-08T06:07:15;101717.47;;;-4.67;100.00
59650;BME280;46162;57.568;25.814;2024-03-08T06:09:50;101712.56;;;-4.87;100.00
59650;BME280;46162;57.568;25.814;2024-03-08T06:12:19;101711.56;;;-4.80;100.00
59650;BME280;46162;57.568;25.814;2024-03-08T06:14:53;101708.13;;;-4.85;100.00
59650;BME280;46162;57.568;25.814;2024-03-08T06:17:31;101712.28;;;-4.73;100.00
59650;BME280;46162;57.568;25.814;2024-03-08T06:20:03;101707.84;;;-4.69;100.00
59650;BME280;46162;57.568;25.814;2024-03-08T06:22:40;101703.44;;;-4.69;100.00
59650;BME280;46162;57.568;25.814;2024-03-08T06:25:11;101707.78;;;-4.66;100.00
59650;BME280;46162;57.568;25.814;2024-03-08T06:27:44;101711.19;;;-4.60;100.00
59650;BME280;46162;57.568;25.814;2024-03-08T06:30:18;101712.91;;;-4.59;100.00
59650;BME280;46162;57.568;25.814;2024-03-08T06:32:54;101710.34;;;-4.63;100.00
59650;BME280;46162;57.568;25.814;2024-03-08T06:35:29;101718.09;;;-4.56;100.00
59650;BME280;46162;57.568;25.814;2024-03-08T06:38:02;101720.81;;;-4.60;100.00
59650;BME280;46162;57.568;25.814;2024-03-08T06:40:34;101724.38;;;-4.63;100.00
59650;BME280;46162;57.568;25.814;2024-03-08T06:43:06;101719.94;;;-4.59;100.00
59650;BME280;46162;57.568;25.814;2024-03-08T06:45:38;101720.88;;;-4.62;100.00
59650;BME280;46162;57.568;25.814;2024-03-08T06:48:12;101726.00;;;-4.56;100.00
59650;BME280;46162;57.568;25.814;2024-03-08T06:50:49;101722.41;;;-4.50;100.00
59650;BME280;46162;57.568;25.814;2024-03-08T06:53:23;101716.16;;;-4.46;100.00
59650;BME280;46162;57.568;25.814;2024-03-08T06:55:56;101724.88;;;-4.42;100.00
59650;BME280;46162;57.568;25.814;2024-03-08T06:58:26;101725.00;;;-4.48;100.00
59650;BME280;46162;57.568;25.814;2024-03-08T07:00:55;101722.19;;;-4.39;100.00
59650;BME280;46162;57.568;25.814;2024-03-08T07:03:31;101719.53;;;-4.39;100.00
59650;BME280;46162;57.568;25.814;2024-03-08T07:06:09;101716.03;;;-4.40;100.00
59650;BME280;46162;57.568;25.814;2024-03-08T07:08:47;101723.91;;;-4.38;100.00
59650;BME280;46162;57.568;25.814;2024-03-08T07:11:25;101723.13;;;-4.42;100.00
59650;BME280;46162;57.568;25.814;2024-03-08T07:13:54;101721.34;;;-4.41;100.00
59650;BME280;46162;57.568;25.814;2024-03-08T07:16:30;101715.88;;;-4.32;100.00
59650;BME280;46162;57.568;25.814;2024-03-08T07:26:00;101718.44;;;-4.29;100.00
59650;BME280;46162;57.568;25.814;2024-03-08T07:28:30;101713.19;;;-4.29;100.00
59650;BME280;46162;57.568;25.814;2024-03-08T07:30:59;101719.47;;;-4.36;100.00
59650;BME280;46162;57.568;25.814;2024-03-08T07:33:40;101722.13;;;-4.38;100.00
59650;BME280;46162;57.568;25.814;2024-03-08T07:36:10;101715.88;;;-4.32;100.00
59650;BME280;46162;57.568;25.814;2024-03-08T07:38:41;101719.31;;;-4.28;100.00
59650;BME280;46162;57.568;25.814;2024-03-08T07:41:13;101713.00;;;-4.20;100.00
59650;BME280;46162;57.568;25.814;2024-03-08T07:43:45;101722.19;;;-3.99;100.00
59650;BME280;46162;57.568;25.814;2024-03-08T07:46:16;101709.19;;;-4.06;100.00
59650;BME280;46162;57.568;25.814;2024-03-08T07:48:48;101715.38;;;-4.09;100.00
59650;BME280;46162;57.568;25.814;2024-03-08T07:51:23;101709.19;;;-4.06;100.00
59650;BME280;46162;57.568;25.814;2024-03-08T07:53:55;101707.66;;;-4.17;100.00
59650;BME280;46162;57.568;25.814;2024-03-08T07:56:30;101712.06;;;-4.19;100.00
59650;BME280;46162;57.568;25.814;2024-03-08T07:59:00;101711.19;;;-4.18;100.00
59650;BME280;46162;57.568;25.814;2024-03-08T08:01:31;101705.97;;;-4.21;100.00
59650;BME280;46162;57.568;25.814;2024-03-08T08:04:03;101707.75;;;-4.23;100.00
59650;BME280;46162;57.568;25.814;2024-03-08T08:06:32;101702.56;;;-4.26;100.00
59650;BME280;46162;57.568;25.814;2024-03-08T08:09:05;101706.09;;;-4.27;100.00
59650;BME280;46162;57.568;25.814;2024-03-08T08:11:41;101705.91;;;-4.18;100.00
59650;BME280;46162;57.568;25.814;2024-03-08T08:14:13;101711.91;;;-4.11;100.00
59650;BME280;46162;57.568;25.814;2024-03-08T08:16:46;101711.13;;;-4.15;100.00
59650;BME280;46162;57.568;25.814;2024-03-08T08:19:16;101705.09;;;-4.20;100.00
59650;BME280;46162;57.568;25.814;2024-03-08T08:21:48;101705.09;;;-4.20;100.00
59650;BME280;46162;57.568;25.814;2024-03-08T08:24:26;101711.91;;;-4.11;100.00
59650;BME280;46162;57.568;25.814;2024-03-08T08:26:58;101709.31;;;-4.13;100.00
59650;BME280;46162;57.568;25.814;2024-03-08T08:29:28;101705.97;;;-4.21;100.00
59650;BME280;46162;57.568;25.814;2024-03-08T08:32:03;101701.50;;;-4.17;100.00
59650;BME280;46162;57.568;25.814;2024-03-08T08:34:32;101705.69;;;-4.07;100.00
59650;BME280;46162;57.568;25.814;2024-03-08T08:37:04;101708.97;;;-3.97;100.00
59650;BME280;46162;57.568;25.814;2024-03-08T08:39:33;101699.22;;;-3.94;100.00
59650;BME280;46162;57.568;25.814;2024-03-08T08:42:02;101706.38;;;-3.99;100.00
59650;BME280;46162;57.568;25.814;2024-03-08T08:44:38;101697.78;;;-4.07;100.00
59650;BME280;46162;57.568;25.814;2024-03-08T08:47:13;101698.69;;;-4.09;100.00
59650;BME280;46162;57.568;25.814;2024-03-08T08:49:49;101692.25;;;-3.96;100.00
59650;BME280;46162;57.568;25.814;2024-03-08T08:52:29;101690.78;;;-4.09;100.00
59650;BME280;46162;57.568;25.814;2024-03-08T08:54:58;101689.69;;;-3.99;100.00
59650;BME280;46162;57.568;25.814;2024-03-08T08:57:34;101684.13;;;-3.87;100.00
59650;BME280;46162;57.568;25.814;2024-03-08T09:00:06;101686.41;;;-3.72;100.00
59650;BME280;46162;57.568;25.814;2024-03-08T09:02:42;101691.31;;;-3.94;100.00
59650;BME280;46162;57.568;25.814;2024-03-08T09:05:11;101675.84;;;-4.11;100.00
59650;BME280;46162;57.568;25.814;2024-03-08T09:07:45;101682.03;;;-4.12;100.00
59650;BME280;46162;57.568;25.814;2024-03-08T09:10:20;101679.59;;;-4.21;100.00
59650;BME280;46162;57.568;25.814;2024-03-08T09:12:52;101676.94;;;-4.19;100.00
59650;BME280;46162;57.568;25.814;2024-03-08T09:15:26;101678.34;;;-4.03;100.00
59650;BME280;46162;57.568;25.814;2024-03-08T09:17:56;101674.59;;;-3.94;100.00
59650;BME280;46162;57.568;25.814;2024-03-08T09:20:26;101683.34;;;-3.91;100.00
59650;BME280;46162;57.568;25.814;2024-03-08T09:22:59;101676.94;;;-3.80;100.00
59650;BME280;46162;57.568;25.814;2024-03-08T09:25:34;101678.94;;;-3.92;100.00
59650;BME280;46162;57.568;25.814;2024-03-08T09:28:03;101674.06;;;-3.71;100.00
59650;BME280;46162;57.568;25.814;2024-03-08T09:30:35;101670.75;;;-3.79;100.00
59650;BME280;46162;57.568;25.814;2024-03-08T09:33:18;101670.66;;;-3.75;100.00
59650;BME280;46162;57.568;25.814;2024-03-08T09:35:48;101659.47;;;-3.86;100.00
59650;BME280;46162;57.568;25.814;2024-03-08T09:38:21;101660.59;;;-3.96;100.00
59650;BME280;46162;57.568;25.814;2024-03-08T09:40:53;101663.09;;;-3.90;100.00
59650;BME280;46162;57.568;25.814;2024-03-08T09:43:24;101666.97;;;-4.06;100.00
59650;BME280;46162;57.568;25.814;2024-03-08T09:45:55;101674.78;;;-4.02;100.00
59650;BME280;46162;57.568;25.814;2024-03-08T09:48:26;101666.91;;;-4.03;100.00
59650;BME280;46162;57.568;25.814;2024-03-08T09:50:56;101666.97;;;-4.06;100.00
59650;BME280;46162;57.568;25.814;2024-03-08T09:53:26;101663.47;;;-4.05;100.00
59650;BME280;46162;57.568;25.814;2024-03-08T09:55:55;101661.69;;;-4.06;100.00
59650;BME280;46162;57.568;25.814;2024-03-08T09:58:29;101659.72;;;-3.97;100.00
59650;BME280;46162;57.568;25.814;2024-03-08T10:01:20;101659.06;;;-4.06;100.00
59650;BME280;46162;57.568;25.814;2024-03-08T10:03:48;101661.72;;;-4.08;100.00
59650;BME280;46162;57.568;25.814;2024-03-08T10:06:25;101650.31;;;-4.08;100.00
59650;BME280;46162;57.568;25.814;2024-03-08T10:08:57;101657.94;;;-3.96;100.00
59650;BME280;46162;57.568;25.814;2024-03-08T10:11:26;101653.50;;;-3.94;100.00
59650;BME280;46162;57.568;25.814;2024-03-08T10:13:56;101667.56;;;-3.94;100.00
59650;BME280;46162;57.568;25.814;2024-03-08T10:16:29;101655.94;;;-3.85;100.00
59650;BME280;46162;57.568;25.814;2024-03-08T10:18:58;101655.22;;;-3.92;100.00
59650;BME280;46162;57.568;25.814;2024-03-08T10:21:27;101644.53;;;-3.87;100.00
59650;BME280;46162;57.568;25.814;2024-03-08T10:23:56;101651.59;;;-3.87;100.00
59650;BME280;46162;57.568;25.814;2024-03-08T10:26:26;101647.38;;;-3.95;100.00
59650;BME280;46162;57.568;25.814;2024-03-08T10:28:54;101649.94;;;-3.92;100.00
59650;BME280;46162;57.568;25.814;2024-03-08T10:31:25;101644.63;;;-3.90;100.00
59650;BME280;46162;57.568;25.814;2024-03-08T10:33:55;101646.31;;;-3.87;100.00
59650;BME280;46162;57.568;25.814;2024-03-08T10:36:24;101650.84;;;-3.93;100.00
59650;BME280;46162;57.568;25.814;2024-03-08T10:38:52;101649.81;;;-3.87;100.00
59650;BME280;46162;57.568;25.814;2024-03-08T10:41:24;101652.47;;;-3.87;100.00
59650;BME280;46162;57.568;25.814;2024-03-08T10:44:07;101643.34;;;-3.74;100.00
59650;BME280;46162;57.568;25.814;2024-03-08T10:46:52;101646.03;;;-3.75;100.00
59650;BME280;46162;57.568;25.814;2024-03-08T10:49:31;101647.53;;;-3.65;100.00
59650;BME280;46162;57.568;25.814;2024-03-08T10:52:03;101645.94;;;-3.72;100.00
59650;BME280;46162;57.568;25.814;2024-03-08T10:54:33;101647.66;;;-3.71;100.00
59650;BME280;46162;57.568;25.814;2024-03-08T10:57:03;101650.53;;;-3.44;100.00
59650;BME280;46162;57.568;25.814;2024-03-08T10:59:35;101641.97;;;-3.54;100.00
59650;BME280;46162;57.568;25.814;2024-03-08T11:02:04;101643.13;;;-3.64;100.00
59650;BME280;46162;57.568;25.814;2024-03-08T11:04:36;101641.63;;;-3.75;100.00
59650;BME280;46162;57.568;25.814;2024-03-08T11:07:05;101639.81;;;-3.73;100.00
59650;BME280;46162;57.568;25.814;2024-03-08T11:09:36;101645.13;;;-3.74;100.00
59650;BME280;46162;57.568;25.814;2024-03-08T11:12:25;101647.88;;;-3.79;100.00
59650;BME280;46162;57.568;25.814;2024-03-08T11:14:59;101643.31;;;-3.72;100.00
59650;BME280;46162;57.568;25.814;2024-03-08T11:17:45;101645.94;;;-3.71;100.00
59650;BME280;46162;57.568;25.814;2024-03-08T11:20:16;101642.19;;;-3.62;100.00
59650;BME280;46162;57.568;25.814;2024-03-08T11:22:49;101636.75;;;-3.56;100.00
59650;BME280;46162;57.568;25.814;2024-03-08T11:25:34;101638.13;;;-3.77;100.00
59650;BME280;46162;57.568;25.814;2024-03-08T11:28:12;101638.13;;;-3.77;100.00
59650;BME280;46162;57.568;25.814;2024-03-08T11:30:45;101640.59;;;-3.69;100.00
59650;BME280;46162;57.568;25.814;2024-03-08T11:33:16;101636.81;;;-3.59;100.00
59650;BME280;46162;57.568;25.814;2024-03-08T11:35:47;101636.03;;;-3.62;100.00
59650;BME280;46162;57.568;25.814;2024-03-08T11:38:16;101648.56;;;-3.71;100.00
59650;BME280;46162;57.568;25.814;2024-03-08T11:40:46;101642.59;;;-3.79;100.00
59650;BME280;46162;57.568;25.814;2024-03-08T11:43:17;101645.22;;;-3.79;100.00
59650;BME280;46162;57.568;25.814;2024-03-08T11:45:47;101637.25;;;-3.76;100.00
59650;BME280;46162;57.568;25.814;2024-03-08T11:48:15;101637.53;;;-3.52;100.00
59650;BME280;46162;57.568;25.814;2024-03-08T11:50:44;101636.25;;;-3.72;100.00
59650;BME280;46162;57.568;25.814;2024-03-08T11:53:14;101639.22;;;-3.48;100.00
59650;BME280;46162;57.568;25.814;2024-03-08T11:55:43;101632.56;;;-3.30;100.00
59650;BME280;46162;57.568;25.814;2024-03-08T11:58:12;101640.19;;;-3.52;100.00
59650;BME280;46162;57.568;25.814;2024-03-08T12:00:41;101639.44;;;-3.57;100.00
59650;BME280;46162;57.568;25.814;2024-03-08T12:03:09;101640.66;;;-3.72;100.00
59650;BME280;46162;57.568;25.814;2024-03-08T12:05:39;101640.66;;;-3.71;100.00
59650;BME280;46162;57.568;25.814;2024-03-08T12:08:09;101634.38;;;-3.67;100.00
59650;BME280;46162;57.568;25.814;2024-03-08T12:10:41;101636.19;;;-3.69;100.00
59650;BME280;46162;57.568;25.814;2024-03-08T12:13:11;101636.22;;;-3.70;100.00
59650;BME280;46162;57.568;25.814;2024-03-08T12:15:41;101641.81;;;-3.82;100.00
59650;BME280;46162;57.568;25.814;2024-03-08T12:18:11;101633.06;;;-3.86;100.00
59650;BME280;46162;57.568;25.814;2024-03-08T12:20:40;101639.25;;;-3.85;100.00
59650;BME280;46162;57.568;25.814;2024-03-08T12:23:16;101635.91;;;-3.94;100.00
59650;BME280;46162;57.568;25.814;2024-03-08T12:25:46;101631.44;;;-3.90;100.00
59650;BME280;46162;57.568;25.814;2024-03-08T12:28:15;101630.38;;;-3.83;100.00
59650;BME280;46162;57.568;25.814;2024-03-08T12:30:47;101631.06;;;-3.75;100.00
59650;BME280;46162;57.568;25.814;2024-03-08T12:33:16;101625.78;;;-3.75;100.00
59650;BME280;46162;57.568;25.814;2024-03-08T12:35:50;101631.34;;;-3.87;100.00
59650;BME280;46162;57.568;25.814;2024-03-08T12:38:23;101631.06;;;-3.75;100.00
59650;BME280;46162;57.568;25.814;2024-03-08T12:40:58;101631.72;;;-3.67;100.00
59650;BME280;46162;57.568;25.814;2024-03-08T12:43:28;101632.34;;;-3.55;100.00
59650;BME280;46162;57.568;25.814;2024-03-08T12:45:59;101631.47;;;-3.56;100.00
59650;BME280;46162;57.568;25.814;2024-03-08T12:48:27;101639.25;;;-3.51;100.00
59650;BME280;46162;57.568;25.814;2024-03-08T12:50:56;101629.31;;;-3.40;100.00
59650;BME280;46162;57.568;25.814;2024-03-08T12:53:24;101634.75;;;-3.46;100.00
59650;BME280;46162;57.568;25.814;2024-03-08T12:55:57;101626.56;;;-3.37;100.00
59650;BME280;46162;57.568;25.814;2024-03-08T12:58:26;101627.94;;;-3.56;100.00
59650;BME280;46162;57.568;25.814;2024-03-08T13:00:55;101622.88;;;-3.64;100.00